createdAt,value
2019-04-25T00:00:05.201Z,0.00
2019-04-25T00:01:05.198Z,0.00
2019-04-25T00:02:05.195Z,0.00
2019-04-25T00:03:05.197Z,0.00
2019-04-25T00:04:05.191Z,0.00
2019-04-25T00:05:05.185Z,0.00
2019-04-25T00:06:05.186Z,0.00
2019-04-25T00:07:05.178Z,0.00
2019-04-25T00:08:05.176Z,0.00
2019-04-25T00:09:05.175Z,0.00
2019-04-25T00:10:05.169Z,0.00
2019-04-25T00:11:05.166Z,0.00
2019-04-25T00:12:05.165Z,0.00
2019-04-25T00:13:05.163Z,0.00
2019-04-25T00:14:05.156Z,0.00
2019-04-25T00:15:05.153Z,0.00
2019-04-25T00:16:05.151Z,0.00
2019-04-25T00:17:05.146Z,0.00
2019-04-25T00:18:05.144Z,0.00
2019-04-25T00:19:05.140Z,0.00
2019-04-25T00:20:05.137Z,0.00
2019-04-25T00:21:05.138Z,0.00
2019-04-25T00:22:05.130Z,0.00
2019-04-25T00:23:05.129Z,0.00
2019-04-25T00:24:05.144Z,0.00
2019-04-25T00:25:15.106Z,0.00
2019-04-25T00:26:05.120Z,0.00
2019-04-25T00:27:05.114Z,0.00
2019-04-25T00:28:05.113Z,0.00
2019-04-25T00:29:05.110Z,0.00
2019-04-25T00:30:05.105Z,0.00
2019-04-25T00:31:05.101Z,0.00
2019-04-25T00:32:05.099Z,0.00
2019-04-25T00:33:05.094Z,0.00
2019-04-25T00:34:05.094Z,0.00
2019-04-25T00:35:05.091Z,0.00
2019-04-25T00:36:05.086Z,0.00
2019-04-25T00:37:05.081Z,0.00
2019-04-25T00:38:05.079Z,0.00
2019-04-25T00:39:05.076Z,0.00
2019-04-25T00:40:05.072Z,0.00
2019-04-25T00:41:05.068Z,0.00
2019-04-25T00:42:05.065Z,0.00
2019-04-25T00:43:05.061Z,0.00
2019-04-25T00:44:05.059Z,0.00
2019-04-25T00:45:05.054Z,0.00
2019-04-25T00:46:05.050Z,0.00
2019-04-25T00:47:05.049Z,0.00
2019-04-25T00:48:05.046Z,0.00
2019-04-25T00:49:05.040Z,0.00
2019-04-25T00:50:05.041Z,0.00
2019-04-25T00:51:05.034Z,0.00
2019-04-25T00:52:05.031Z,0.00
2019-04-25T00:53:05.027Z,0.00
2019-04-25T00:54:05.024Z,0.00
2019-04-25T00:55:05.020Z,0.00
2019-04-25T00:56:05.019Z,0.00
2019-04-25T00:57:05.015Z,0.00
2019-04-25T00:58:05.010Z,0.00
2019-04-25T00:59:05.006Z,0.00
2019-04-25T01:00:05.004Z,0.00
2019-04-25T01:01:05.001Z,0.00
2019-04-25T01:02:07.492Z,0.00
2019-04-25T01:03:04.993Z,0.00
2019-04-25T01:04:04.991Z,0.00
2019-04-25T01:05:04.988Z,0.00
2019-04-25T01:06:04.982Z,0.00
2019-04-25T01:07:04.978Z,0.00
2019-04-25T01:08:04.976Z,0.00
2019-04-25T01:09:04.971Z,0.00
2019-04-25T01:10:04.967Z,0.00
2019-04-25T01:11:04.964Z,0.00
2019-04-25T01:12:04.960Z,0.00
2019-04-25T01:13:04.958Z,0.00
2019-04-25T01:14:04.956Z,0.00
2019-04-25T01:15:04.949Z,0.00
2019-04-25T01:16:04.960Z,0.00
2019-04-25T01:17:04.941Z,0.00
2019-04-25T01:18:04.938Z,0.00
2019-04-25T01:19:04.934Z,0.00
2019-04-25T01:20:04.930Z,0.00
2019-04-25T01:21:04.926Z,0.00
2019-04-25T01:22:04.923Z,0.00
2019-04-25T01:23:04.920Z,0.00
2019-04-25T01:24:04.916Z,0.00
2019-04-25T01:25:04.912Z,0.00
2019-04-25T01:26:04.907Z,0.00
2019-04-25T01:27:05.372Z,0.00
2019-04-25T01:28:04.902Z,0.00
2019-04-25T01:29:04.895Z,0.00
2019-04-25T01:30:06.148Z,0.00
2019-04-25T01:31:04.889Z,0.00
2019-04-25T01:32:04.886Z,0.00
2019-04-25T01:33:04.881Z,0.00
2019-04-25T01:34:04.879Z,0.00
2019-04-25T01:35:04.876Z,0.00
2019-04-25T01:36:04.870Z,0.00
2019-04-25T01:37:04.866Z,0.00
2019-04-25T01:38:04.863Z,0.00
2019-04-25T01:39:04.859Z,0.00
2019-04-25T01:40:04.856Z,0.00
2019-04-25T01:41:04.858Z,0.00
2019-04-25T01:42:05.310Z,0.00
2019-04-25T01:43:04.845Z,0.00
2019-04-25T01:44:04.847Z,0.00
2019-04-25T01:45:04.836Z,0.00
2019-04-25T01:46:04.835Z,0.00
2019-04-25T01:47:04.830Z,0.00
2019-04-25T01:48:04.827Z,0.00
2019-04-25T01:49:04.820Z,0.00
2019-04-25T01:50:04.817Z,0.00
2019-04-25T01:51:04.814Z,0.00
2019-04-25T01:52:04.810Z,0.00
2019-04-25T01:53:04.804Z,0.00
2019-04-25T01:54:04.802Z,0.00
2019-04-25T01:55:05.583Z,0.00
2019-04-25T01:56:07.613Z,0.00
2019-04-25T01:57:04.789Z,0.00
2019-04-25T01:58:04.786Z,0.00
2019-04-25T01:59:04.782Z,0.00
2019-04-25T02:00:04.777Z,0.00
2019-04-25T02:01:04.782Z,0.00
2019-04-25T02:02:06.759Z,0.00
2019-04-25T02:03:04.766Z,0.00
2019-04-25T02:04:04.768Z,0.00
2019-04-25T02:05:05.104Z,0.00
2019-04-25T02:06:05.067Z,0.00
2019-04-25T02:07:04.759Z,0.00
2019-04-25T02:08:06.962Z,0.00
2019-04-25T02:09:05.280Z,0.00
2019-04-25T02:10:04.737Z,0.00
2019-04-25T02:11:04.804Z,0.00
2019-04-25T02:12:04.882Z,0.00
2019-04-25T02:13:04.725Z,0.00
2019-04-25T02:14:05.186Z,0.00
2019-04-25T02:15:06.178Z,0.00
2019-04-25T02:16:05.283Z,0.00
2019-04-25T02:17:04.714Z,0.00
2019-04-25T02:18:04.705Z,0.00
2019-04-25T02:19:04.701Z,0.00
2019-04-25T02:20:04.697Z,0.00
2019-04-25T02:21:04.698Z,0.00
2019-04-25T02:22:04.690Z,0.00
2019-04-25T02:23:04.685Z,0.00
2019-04-25T02:24:05.705Z,0.00
2019-04-25T02:25:04.675Z,0.00
2019-04-25T02:26:15.218Z,0.00
2019-04-25T02:27:04.769Z,0.00
2019-04-25T02:28:05.664Z,0.00
2019-04-25T02:29:04.777Z,0.00
2019-04-25T02:30:06.885Z,0.00
2019-04-25T02:31:08.535Z,0.00
2019-04-25T02:32:08.792Z,0.00
2019-04-25T02:33:08.895Z,0.00
2019-04-25T02:34:08.150Z,0.00
2019-04-25T02:35:09.115Z,0.00
2019-04-25T02:36:08.689Z,0.00
2019-04-25T02:37:09.130Z,0.00
2019-04-25T02:38:08.502Z,0.00
2019-04-25T02:39:08.826Z,0.00
2019-04-25T02:40:07.688Z,0.00
2019-04-25T02:41:08.361Z,0.00
2019-04-25T02:42:07.929Z,0.00
2019-04-25T02:43:07.977Z,0.00
2019-04-25T02:44:09.459Z,0.00
2019-04-25T02:45:08.220Z,0.00
2019-04-25T02:46:07.422Z,0.00
2019-04-25T02:47:07.888Z,0.00
2019-04-25T02:48:05.732Z,0.00
2019-04-25T02:49:09.048Z,0.00
2019-04-25T02:50:07.501Z,0.00
2019-04-25T02:51:06.166Z,0.00
2019-04-25T02:52:08.508Z,0.00
2019-04-25T02:53:06.120Z,0.00
2019-04-25T02:54:06.789Z,0.00
2019-04-25T02:55:09.014Z,0.00
2019-04-25T02:56:13.208Z,0.00
2019-04-25T02:57:07.773Z,0.00
2019-04-25T02:58:05.636Z,0.00
2019-04-25T02:59:07.046Z,0.00
2019-04-25T03:00:07.368Z,0.00
2019-04-25T03:01:16.499Z,0.00
2019-04-25T03:02:05.809Z,0.00
2019-04-25T03:03:06.880Z,0.00
2019-04-25T03:04:07.455Z,0.00
2019-04-25T03:05:09.104Z,0.00
2019-04-25T03:06:07.484Z,0.00
2019-04-25T03:07:08.117Z,0.00
2019-04-25T03:08:08.028Z,0.00
2019-04-25T03:09:06.461Z,0.00
2019-04-25T03:10:06.811Z,0.00
2019-04-25T03:11:06.175Z,0.00
2019-04-25T03:12:06.523Z,0.00
2019-04-25T03:13:07.031Z,0.00
2019-04-25T03:14:06.616Z,0.00
2019-04-25T03:15:06.664Z,0.00
2019-04-25T03:16:07.690Z,0.00
2019-04-25T03:17:05.267Z,0.00
2019-04-25T03:18:05.667Z,0.00
2019-04-25T03:19:05.101Z,0.00
2019-04-25T03:20:08.056Z,0.00
2019-04-25T03:21:06.253Z,0.00
2019-04-25T03:22:08.384Z,0.00
2019-04-25T03:23:07.011Z,0.00
2019-04-25T03:24:06.154Z,0.00
2019-04-25T03:25:07.057Z,0.00
2019-04-25T03:26:05.819Z,0.00
2019-04-25T03:27:05.183Z,0.00
2019-04-25T03:28:05.262Z,0.00
2019-04-25T03:29:05.232Z,0.00
2019-04-25T03:30:08.602Z,0.00
2019-04-25T03:31:09.578Z,0.00
2019-04-25T03:32:09.269Z,0.00
2019-04-25T03:33:09.621Z,0.00
2019-04-25T03:34:09.464Z,0.00
2019-04-25T03:35:05.738Z,0.00
2019-04-25T03:36:05.479Z,0.00
2019-04-25T03:37:05.599Z,0.00
2019-04-25T03:38:04.570Z,0.00
2019-04-25T03:39:05.241Z,0.00
2019-04-25T03:40:05.595Z,0.00
2019-04-25T03:41:04.847Z,0.00
2019-04-25T03:42:05.205Z,0.00
2019-04-25T03:43:05.059Z,0.00
2019-04-25T03:44:05.307Z,0.00
2019-04-25T03:45:05.047Z,0.00
2019-04-25T03:46:04.995Z,0.00
2019-04-25T03:47:06.445Z,0.00
2019-04-25T03:48:05.632Z,0.00
2019-04-25T03:49:05.046Z,0.00
2019-04-25T03:50:05.864Z,0.00
2019-04-25T03:51:05.457Z,0.00
2019-04-25T03:52:05.272Z,0.00
2019-04-25T03:53:05.323Z,0.00
2019-04-25T03:54:07.129Z,0.00
2019-04-25T03:55:05.128Z,0.00
2019-04-25T03:56:05.992Z,0.00
2019-04-25T03:57:05.198Z,0.00
2019-04-25T03:58:06.647Z,0.00
2019-04-25T03:59:05.179Z,0.00
2019-04-25T04:00:06.201Z,0.00
2019-04-25T04:01:07.002Z,0.00
2019-04-25T04:02:05.901Z,0.00
2019-04-25T04:03:06.462Z,0.00
2019-04-25T04:04:05.769Z,0.00
2019-04-25T04:05:06.011Z,0.00
2019-04-25T04:06:06.308Z,0.00
2019-04-25T04:07:07.322Z,0.00
2019-04-25T04:08:05.248Z,0.00
2019-04-25T04:09:05.516Z,0.00
2019-04-25T04:10:05.367Z,0.00
2019-04-25T04:11:07.075Z,0.00
2019-04-25T04:12:05.171Z,0.00
2019-04-25T04:13:05.276Z,0.00
2019-04-25T04:14:05.738Z,0.00
2019-04-25T04:15:05.604Z,0.00
2019-04-25T04:16:05.166Z,0.00
2019-04-25T04:17:05.337Z,0.00
2019-04-25T04:18:05.149Z,0.00
2019-04-25T04:19:05.092Z,0.00
2019-04-25T04:20:05.563Z,0.00
2019-04-25T04:21:05.396Z,0.00
2019-04-25T04:22:05.384Z,0.00
2019-04-25T04:23:05.614Z,0.00
2019-04-25T04:24:04.160Z,0.00
2019-04-25T04:25:04.134Z,0.00
2019-04-25T04:26:04.133Z,0.00
2019-04-25T04:27:06.598Z,0.00
2019-04-25T04:28:04.119Z,0.00
2019-04-25T04:29:04.750Z,0.00
2019-04-25T04:30:04.223Z,0.00
2019-04-25T04:31:04.111Z,0.00
2019-04-25T04:32:04.103Z,0.00
2019-04-25T04:33:04.097Z,0.00
2019-04-25T04:34:04.094Z,0.00
2019-04-25T04:35:04.087Z,0.00
2019-04-25T04:36:04.089Z,0.00
2019-04-25T04:37:04.077Z,0.00
2019-04-25T04:38:04.309Z,0.00
2019-04-25T04:39:04.070Z,0.00
2019-04-25T04:40:04.064Z,0.00
2019-04-25T04:41:04.071Z,0.00
2019-04-25T04:42:04.052Z,0.00
2019-04-25T04:43:04.448Z,0.00
2019-04-25T04:44:04.191Z,0.00
2019-04-25T04:45:04.045Z,0.00
2019-04-25T04:46:04.070Z,0.00
2019-04-25T04:47:04.137Z,0.00
2019-04-25T04:48:04.027Z,0.00
2019-04-25T04:49:04.058Z,0.00
2019-04-25T04:50:04.024Z,0.00
2019-04-25T04:51:04.013Z,0.00
2019-04-25T04:52:06.115Z,0.00
2019-04-25T04:53:04.001Z,0.00
2019-04-25T04:54:03.997Z,0.00
2019-04-25T04:55:08.394Z,0.00
2019-04-25T04:56:04.241Z,0.00
2019-04-25T04:57:16.875Z,0.00
2019-04-25T04:58:04.286Z,0.00
2019-04-25T04:59:03.979Z,0.00
2019-04-25T05:00:03.976Z,0.00
2019-04-25T05:01:03.964Z,0.00
2019-04-25T05:02:03.959Z,0.00
2019-04-25T05:03:04.464Z,0.00
2019-04-25T05:04:04.052Z,0.00
2019-04-25T05:05:03.945Z,0.00
2019-04-25T05:06:03.943Z,0.00
2019-04-25T05:07:03.936Z,0.00
2019-04-25T05:08:03.947Z,0.00
2019-04-25T05:09:03.925Z,0.00
2019-04-25T05:10:03.924Z,0.00
2019-04-25T05:11:04.032Z,0.00
2019-04-25T05:12:04.132Z,0.00
2019-04-25T05:13:04.331Z,0.00
2019-04-25T05:14:04.053Z,0.00
2019-04-25T05:15:03.901Z,0.00
2019-04-25T05:16:03.895Z,0.00
2019-04-25T05:17:04.366Z,0.00
2019-04-25T05:18:04.110Z,0.00
2019-04-25T05:19:03.881Z,0.00
2019-04-25T05:20:03.876Z,0.00
2019-04-25T05:21:04.241Z,0.00
2019-04-25T05:22:03.865Z,0.00
2019-04-25T05:23:03.862Z,0.00
2019-04-25T05:24:04.161Z,0.00
2019-04-25T05:25:03.852Z,0.00
2019-04-25T05:26:04.382Z,0.00
2019-04-25T05:27:03.915Z,0.00
2019-04-25T05:28:05.316Z,0.00
2019-04-25T05:29:03.836Z,0.00
2019-04-25T05:30:04.047Z,0.00
2019-04-25T05:31:03.826Z,0.00
2019-04-25T05:32:04.277Z,0.00
2019-04-25T05:33:04.008Z,0.00
2019-04-25T05:34:03.818Z,0.00
2019-04-25T05:35:03.805Z,0.00
2019-04-25T05:36:05.773Z,0.00
2019-04-25T05:37:03.906Z,0.00
2019-04-25T05:38:03.804Z,0.00
2019-04-25T05:39:04.048Z,0.00
2019-04-25T05:40:05.515Z,0.00
2019-04-25T05:41:04.053Z,0.00
2019-04-25T05:42:04.298Z,0.00
2019-04-25T05:43:03.770Z,0.00
2019-04-25T05:44:04.471Z,0.00
2019-04-25T05:45:04.499Z,0.00
2019-04-25T05:46:03.757Z,0.00
2019-04-25T05:47:04.152Z,0.00
2019-04-25T05:48:05.748Z,0.00
2019-04-25T05:49:05.084Z,0.00
2019-04-25T05:50:04.177Z,0.00
2019-04-25T05:51:03.978Z,1.43
2019-04-25T05:52:04.056Z,0.67
2019-04-25T05:53:04.315Z,1.04
2019-04-25T05:54:04.163Z,0.57
2019-04-25T05:55:03.985Z,2.67
2019-04-25T05:56:04.146Z,3.52
2019-04-25T05:57:03.801Z,3.52
2019-04-25T05:58:03.956Z,3.72
2019-04-25T05:59:05.449Z,3.62
2019-04-25T06:00:03.736Z,4.48
2019-04-25T06:01:03.694Z,5.24
2019-04-25T06:02:03.947Z,7.71
2019-04-25T06:03:03.764Z,10.20
2019-04-25T06:04:05.376Z,9.53
2019-04-25T06:05:03.676Z,11.06
2019-04-25T06:06:03.675Z,11.82
2019-04-25T06:07:05.553Z,11.06
2019-04-25T06:08:04.348Z,9.25
2019-04-25T06:09:04.119Z,8.11
2019-04-25T06:10:04.123Z,7.53
2019-04-25T06:11:04.047Z,11.35
2019-04-25T06:12:04.713Z,9.72
2019-04-25T06:13:03.645Z,12.68
2019-04-25T06:14:03.641Z,13.35
2019-04-25T06:15:03.639Z,14.50
2019-04-25T06:16:03.652Z,13.74
2019-04-25T06:17:03.630Z,14.40
2019-04-25T06:18:03.914Z,16.69
2019-04-25T06:19:13.283Z,20.03
2019-04-25T06:20:05.976Z,18.98
2019-04-25T06:21:03.622Z,18.79
2019-04-25T06:22:03.612Z,18.98
2019-04-25T06:23:03.610Z,18.89
2019-04-25T06:24:04.305Z,18.70
2019-04-25T06:25:07.984Z,21.56
2019-04-25T06:26:17.194Z,21.38
2019-04-25T06:27:03.836Z,26.54
2019-04-25T06:28:03.800Z,31.31
2019-04-25T06:29:03.588Z,31.02
2019-04-25T06:30:04.342Z,31.50
2019-04-25T06:31:04.423Z,28.16
2019-04-25T06:32:06.561Z,31.80
2019-04-25T06:33:03.581Z,31.51
2019-04-25T06:34:04.556Z,30.94
2019-04-25T06:35:04.188Z,31.13
2019-04-25T06:36:04.118Z,33.33
2019-04-25T06:37:04.788Z,33.81
2019-04-25T06:38:03.643Z,32.57
2019-04-25T06:39:04.100Z,36.48
2019-04-25T06:40:05.010Z,37.05
2019-04-25T06:41:03.649Z,37.74
2019-04-25T06:42:04.009Z,34.69
2019-04-25T06:43:03.545Z,35.74
2019-04-25T06:44:04.056Z,37.36
2019-04-25T06:45:03.637Z,37.55
2019-04-25T06:46:03.914Z,36.41
2019-04-25T06:47:03.537Z,36.31
2019-04-25T06:48:03.998Z,44.93
2019-04-25T06:49:03.615Z,53.92
2019-04-25T06:50:04.284Z,53.25
2019-04-25T06:51:03.604Z,55.93
2019-04-25T06:52:04.180Z,55.26
2019-04-25T06:53:05.037Z,57.65
2019-04-25T06:54:03.517Z,56.69
2019-04-25T06:55:03.514Z,57.84
2019-04-25T06:56:03.589Z,57.93
2019-04-25T06:57:04.538Z,55.57
2019-04-25T06:58:10.128Z,61.02
2019-04-25T06:59:03.545Z,62.94
2019-04-25T07:00:04.436Z,67.91
2019-04-25T07:01:03.528Z,64.47
2019-04-25T07:02:04.251Z,66.00
2019-04-25T07:03:04.276Z,64.95
2019-04-25T07:04:04.087Z,66.76
2019-04-25T07:05:03.993Z,66.19
2019-04-25T07:07:09.223Z,72.31
2019-04-25T07:07:56.827Z,67.18
2019-04-25T07:08:56.826Z,76.37
2019-04-25T07:09:56.943Z,73.88
2019-04-25T07:10:56.824Z,73.50
2019-04-25T07:11:56.820Z,71.68
2019-04-25T07:12:56.817Z,72.34
2019-04-25T07:13:56.816Z,74.55
2019-04-25T07:14:56.815Z,71.01
2019-04-25T07:15:56.812Z,70.24
2019-04-25T07:16:56.811Z,69.57
2019-04-25T07:17:56.809Z,71.11
2019-04-25T07:18:56.809Z,72.92
2019-04-25T07:19:56.807Z,75.89
2019-04-25T07:20:56.806Z,74.58
2019-04-25T07:21:56.804Z,77.80
2019-04-25T07:22:56.804Z,80.43
2019-04-25T07:23:56.801Z,80.71
2019-04-25T07:24:56.800Z,76.21
2019-04-25T07:25:56.798Z,73.44
2019-04-25T07:26:56.798Z,77.75
2019-04-25T07:27:56.799Z,76.98
2019-04-25T07:28:56.797Z,78.13
2019-04-25T07:29:56.795Z,78.61
2019-04-25T07:30:56.793Z,78.03
2019-04-25T07:31:56.795Z,80.90
2019-04-25T07:32:56.791Z,81.48
2019-04-25T07:33:56.789Z,80.14
2019-04-25T07:34:56.788Z,82.53
2019-04-25T07:35:57.172Z,84.45
2019-04-25T07:36:56.793Z,81.86
2019-04-25T07:37:56.786Z,83.49
2019-04-25T07:39:07.672Z,81.29
2019-04-25T07:39:56.786Z,81.48
2019-04-25T07:40:56.783Z,85.60
2019-04-25T07:41:56.784Z,84.06
2019-04-25T07:42:56.784Z,80.24
2019-04-25T07:43:56.788Z,78.61
2019-04-25T07:44:56.814Z,77.88
2019-04-25T07:45:56.784Z,84.26
2019-04-25T07:46:56.782Z,85.35
2019-04-25T07:47:56.847Z,83.92
2019-04-25T07:48:56.782Z,84.11
2019-04-25T07:49:56.778Z,86.98
2019-04-25T07:50:56.779Z,85.06
2019-04-25T07:51:56.779Z,83.25
2019-04-25T07:52:56.776Z,81.95
2019-04-25T07:53:56.777Z,86.45
2019-04-25T07:54:56.779Z,85.35
2019-04-25T07:55:56.776Z,85.93
2019-04-25T07:56:56.776Z,85.68
2019-04-25T07:57:56.775Z,83.86
2019-04-25T07:58:56.774Z,87.12
2019-04-25T07:59:56.774Z,86.35
2019-04-25T08:00:56.773Z,86.93
2019-04-25T08:01:56.773Z,87.31
2019-04-25T08:02:56.773Z,87.41
2019-04-25T08:03:56.776Z,86.07
2019-04-25T08:04:56.773Z,88.27
2019-04-25T08:05:56.773Z,86.35
2019-04-25T08:06:56.772Z,87.60
2019-04-25T08:07:56.773Z,86.93
2019-04-25T08:08:56.780Z,88.46
2019-04-25T08:09:56.773Z,87.41
2019-04-25T08:10:56.774Z,86.07
2019-04-25T08:11:56.775Z,86.68
2019-04-25T08:12:56.773Z,86.58
2019-04-25T08:13:56.774Z,85.10
2019-04-25T08:14:56.777Z,84.81
2019-04-25T08:15:56.778Z,86.05
2019-04-25T08:16:56.780Z,85.05
2019-04-25T08:17:56.781Z,85.39
2019-04-25T08:18:56.782Z,86.45
2019-04-25T08:19:56.787Z,86.40
2019-04-25T08:20:56.785Z,86.64
2019-04-25T08:21:56.789Z,86.83
2019-04-25T08:22:58.941Z,86.83
2019-04-25T08:23:56.792Z,86.54
2019-04-25T08:24:56.791Z,86.88
2019-04-25T08:25:56.793Z,87.37
2019-04-25T08:26:56.802Z,87.94
2019-04-25T08:27:56.840Z,87.84
2019-04-25T08:28:57.828Z,86.98
2019-04-25T08:29:56.802Z,86.79
2019-04-25T08:30:56.802Z,87.60
2019-04-25T08:31:56.803Z,87.55
2019-04-25T08:32:56.804Z,87.65
2019-04-25T08:33:56.804Z,87.88
2019-04-25T08:34:56.805Z,88.46
2019-04-25T08:36:06.627Z,88.17
2019-04-25T08:36:56.807Z,86.97
2019-04-25T08:37:56.810Z,85.53
2019-04-25T08:38:56.809Z,85.72
2019-04-25T08:39:56.812Z,85.92
2019-04-25T08:40:56.811Z,85.78
2019-04-25T08:41:56.813Z,86.16
2019-04-25T08:42:56.815Z,86.35
2019-04-25T08:43:56.817Z,85.58
2019-04-25T08:44:56.817Z,85.92
2019-04-25T08:45:56.819Z,85.10
2019-04-25T08:46:56.820Z,84.56
2019-04-25T08:47:56.823Z,83.36
2019-04-25T08:48:56.824Z,81.53
2019-04-25T08:49:56.824Z,79.42
2019-04-25T08:50:56.826Z,81.40
2019-04-25T08:51:56.831Z,80.49
2019-04-25T08:52:56.832Z,81.40
2019-04-25T08:53:56.833Z,81.74
2019-04-25T08:54:57.624Z,82.89
2019-04-25T08:55:56.838Z,83.12
2019-04-25T08:56:56.839Z,81.76
2019-04-25T08:57:56.843Z,77.90
2019-04-25T08:59:05.505Z,72.03
2019-04-25T08:59:56.849Z,70.82
2019-04-25T09:01:00.783Z,69.51
2019-04-25T09:01:56.857Z,65.88
2019-04-25T09:02:56.860Z,62.67
2019-04-25T09:03:56.864Z,63.64
2019-04-25T09:04:56.872Z,65.27
2019-04-25T09:05:56.905Z,63.98
2019-04-25T09:06:56.878Z,62.35
2019-04-25T09:07:56.885Z,61.74
2019-04-25T09:08:56.889Z,62.12
2019-04-25T09:09:56.901Z,64.15
2019-04-25T09:10:56.902Z,65.30
2019-04-25T09:11:56.908Z,63.38
2019-04-25T09:12:56.914Z,63.09
2019-04-25T09:13:56.922Z,64.86
2019-04-25T09:14:56.930Z,62.00
2019-04-25T09:15:56.936Z,63.12
2019-04-25T09:16:56.945Z,64.76
2019-04-25T09:17:56.952Z,65.78
2019-04-25T09:18:56.960Z,67.77
2019-04-25T09:19:56.968Z,70.90
2019-04-25T09:20:56.978Z,73.88
2019-04-25T09:21:56.989Z,75.62
2019-04-25T09:22:56.992Z,76.09
2019-04-25T09:23:56.999Z,75.67
2019-04-25T09:24:57.006Z,75.48
2019-04-25T09:25:57.013Z,74.62
2019-04-25T09:26:57.020Z,75.04
2019-04-25T09:27:57.030Z,73.85
2019-04-25T09:28:57.033Z,73.46
2019-04-25T09:29:57.041Z,74.52
2019-04-25T09:30:57.048Z,74.52
2019-04-25T09:31:57.055Z,74.81
2019-04-25T09:32:57.060Z,75.10
2019-04-25T09:33:57.067Z,75.48
2019-04-25T09:34:57.071Z,74.08
2019-04-25T09:35:57.078Z,74.65
2019-04-25T09:36:57.082Z,74.08
2019-04-25T09:37:57.088Z,73.79
2019-04-25T09:38:57.094Z,74.65
2019-04-25T09:39:57.119Z,74.17
2019-04-25T09:40:57.107Z,76.19
2019-04-25T09:41:57.114Z,76.00
2019-04-25T09:42:57.115Z,73.98
2019-04-25T09:43:57.120Z,71.96
2019-04-25T09:44:57.125Z,72.83
2019-04-25T09:45:57.129Z,73.88
2019-04-25T09:46:57.136Z,74.50
2019-04-25T09:47:57.141Z,74.40
2019-04-25T09:48:57.144Z,74.21
2019-04-25T09:49:57.150Z,72.32
2019-04-25T09:50:57.156Z,72.42
2019-04-25T09:51:57.159Z,71.52
2019-04-25T09:52:57.164Z,72.03
2019-04-25T09:53:57.172Z,70.53
2019-04-25T09:54:57.178Z,67.83
2019-04-25T09:55:57.179Z,67.83
2019-04-25T09:56:57.187Z,66.49
2019-04-25T09:57:57.211Z,67.55
2019-04-25T09:58:57.195Z,67.49
2019-04-25T09:59:57.202Z,67.65
2019-04-25T10:00:57.205Z,70.34
2019-04-25T10:01:57.211Z,71.97
2019-04-25T10:02:57.217Z,71.08
2019-04-25T10:03:57.224Z,72.48
2019-04-25T10:04:57.228Z,73.44
2019-04-25T10:05:57.234Z,72.83
2019-04-25T10:06:57.240Z,73.41
2019-04-25T10:07:57.245Z,73.73
2019-04-25T10:08:57.250Z,71.81
2019-04-25T10:09:57.256Z,71.04
2019-04-25T10:10:57.263Z,73.92
2019-04-25T10:11:57.267Z,74.50
2019-04-25T10:12:57.271Z,73.22
2019-04-25T10:13:57.277Z,69.82
2019-04-25T10:14:57.283Z,68.16
2019-04-25T10:15:57.289Z,66.55
2019-04-25T10:16:57.294Z,63.70
2019-04-25T10:17:57.298Z,64.28
2019-04-25T10:18:57.305Z,64.69
2019-04-25T10:19:57.311Z,62.63
2019-04-25T10:20:57.316Z,64.53
2019-04-25T10:21:57.321Z,65.63
2019-04-25T10:22:57.331Z,65.91
2019-04-25T10:23:57.343Z,63.31
2019-04-25T10:25:00.555Z,64.28
2019-04-25T10:25:57.347Z,64.53
2019-04-25T10:26:57.355Z,62.60
2019-04-25T10:27:57.378Z,63.64
2019-04-25T10:28:57.368Z,65.01
2019-04-25T10:29:57.376Z,65.72
2019-04-25T10:30:57.383Z,62.51
2019-04-25T10:31:57.388Z,62.57
2019-04-25T10:32:57.396Z,64.31
2019-04-25T10:33:57.404Z,64.76
2019-04-25T10:34:57.410Z,65.43
2019-04-25T10:35:59.462Z,65.81
2019-04-25T10:36:57.422Z,65.78
2019-04-25T10:37:57.430Z,66.46
2019-04-25T10:39:07.533Z,67.71
2019-04-25T10:39:57.445Z,68.38
2019-04-25T10:40:57.450Z,70.68
2019-04-25T10:41:57.455Z,70.88
2019-04-25T10:42:57.461Z,72.90
2019-04-25T10:43:57.466Z,73.09
2019-04-25T10:44:57.472Z,71.42
2019-04-25T10:45:57.480Z,72.67
2019-04-25T10:46:57.483Z,72.96
2019-04-25T10:47:57.490Z,73.44
2019-04-25T10:48:57.496Z,73.00
2019-04-25T10:49:59.173Z,71.94
2019-04-25T10:50:57.507Z,71.26
2019-04-25T10:51:57.514Z,72.61
2019-04-25T10:52:57.514Z,71.69
2019-04-25T10:53:57.520Z,70.72
2019-04-25T10:54:57.530Z,69.95
2019-04-25T10:55:57.530Z,70.09
2019-04-25T10:56:57.535Z,70.62
2019-04-25T10:57:57.541Z,68.57
2019-04-25T10:58:57.550Z,70.53
2019-04-25T11:00:06.539Z,70.53
2019-04-25T11:00:57.556Z,70.34
2019-04-25T11:01:57.560Z,69.09
2019-04-25T11:02:57.566Z,68.93
2019-04-25T11:03:57.570Z,69.22
2019-04-25T11:04:57.574Z,70.15
2019-04-25T11:05:57.579Z,70.82
2019-04-25T11:06:57.583Z,69.47
2019-04-25T11:07:57.589Z,69.85
2019-04-25T11:08:57.592Z,71.11
2019-04-25T11:09:57.597Z,69.28
2019-04-25T11:10:57.601Z,69.18
2019-04-25T11:11:57.605Z,68.70
2019-04-25T11:12:57.609Z,70.62
2019-04-25T11:13:57.614Z,73.13
2019-04-25T11:14:57.617Z,71.40
2019-04-25T11:15:57.622Z,70.43
2019-04-25T11:16:57.625Z,71.40
2019-04-25T11:17:57.629Z,70.86
2019-04-25T11:18:57.639Z,70.37
2019-04-25T11:19:57.637Z,70.70
2019-04-25T11:20:57.638Z,70.70
2019-04-25T11:21:57.644Z,69.93
2019-04-25T11:22:57.650Z,66.36
2019-04-25T11:23:57.652Z,65.05
2019-04-25T11:24:57.657Z,66.49
2019-04-25T11:25:57.658Z,66.20
2019-04-25T11:26:57.663Z,67.83
2019-04-25T11:27:57.666Z,67.87
2019-04-25T11:28:58.564Z,66.14
2019-04-25T11:30:08.604Z,66.10
2019-04-25T11:30:57.677Z,66.49
2019-04-25T11:31:57.692Z,67.87
2019-04-25T11:32:58.151Z,67.10
2019-04-25T11:33:57.689Z,65.94
2019-04-25T11:34:57.691Z,65.11
2019-04-25T11:35:57.695Z,64.82
2019-04-25T11:36:57.762Z,65.59
2019-04-25T11:37:57.703Z,66.36
2019-04-25T11:38:57.708Z,67.81
2019-04-25T11:39:57.710Z,68.16
2019-04-25T11:40:57.713Z,67.97
2019-04-25T11:41:57.717Z,67.87
2019-04-25T11:42:57.724Z,68.44
2019-04-25T11:44:00.299Z,69.79
2019-04-25T11:44:57.729Z,67.90
2019-04-25T11:45:57.732Z,67.52
2019-04-25T11:46:58.783Z,66.65
2019-04-25T11:47:57.740Z,68.58
2019-04-25T11:48:57.743Z,69.48
2019-04-25T11:49:57.747Z,67.84
2019-04-25T11:50:57.749Z,65.40
2019-04-25T11:51:57.754Z,65.78
2019-04-25T11:52:57.758Z,65.98
2019-04-25T11:53:57.762Z,65.88
2019-04-25T11:54:57.764Z,63.76
2019-04-25T11:55:57.769Z,64.63
2019-04-25T11:56:57.772Z,64.15
2019-04-25T11:57:57.776Z,63.76
2019-04-25T11:58:57.780Z,63.38
2019-04-25T11:59:57.788Z,61.04
2019-04-25T12:00:58.048Z,61.13
2019-04-25T12:01:57.791Z,61.35
2019-04-25T12:02:57.798Z,61.65
2019-04-25T12:03:57.798Z,61.68
2019-04-25T12:04:57.801Z,61.55
2019-04-25T12:05:57.805Z,61.07
2019-04-25T12:06:57.809Z,60.30
2019-04-25T12:07:57.813Z,59.91
2019-04-25T12:08:57.817Z,60.30
2019-04-25T12:09:57.820Z,61.65
2019-04-25T12:10:57.823Z,62.22
2019-04-25T12:11:57.828Z,62.12
2019-04-25T12:12:57.907Z,61.65
2019-04-25T12:13:57.833Z,61.25
2019-04-25T12:14:57.839Z,61.96
2019-04-25T12:15:58.526Z,61.25
2019-04-25T12:16:57.845Z,61.25
2019-04-25T12:17:57.849Z,61.25
2019-04-25T12:18:57.851Z,59.49
2019-04-25T12:19:57.855Z,60.07
2019-04-25T12:20:58.049Z,61.90
2019-04-25T12:21:58.252Z,61.71
2019-04-25T12:23:05.816Z,61.61
2019-04-25T12:23:58.057Z,62.19
2019-04-25T12:24:57.875Z,61.61
2019-04-25T12:25:57.877Z,61.13
2019-04-25T12:26:57.882Z,60.17
2019-04-25T12:27:57.884Z,60.30
2019-04-25T12:28:57.887Z,61.25
2019-04-25T12:29:57.891Z,60.30
2019-04-25T12:30:57.901Z,60.27
2019-04-25T12:31:58.588Z,60.17
2019-04-25T12:32:57.901Z,60.10
2019-04-25T12:33:57.906Z,58.56
2019-04-25T12:34:57.910Z,58.78
2019-04-25T12:35:58.210Z,58.78
2019-04-25T12:36:57.923Z,57.43
2019-04-25T12:37:57.919Z,57.14
2019-04-25T12:38:58.764Z,57.75
2019-04-25T12:39:57.926Z,58.33
2019-04-25T12:40:57.930Z,58.55
2019-04-25T12:41:57.938Z,57.87
2019-04-25T12:42:57.938Z,56.11
2019-04-25T12:43:57.942Z,56.72
2019-04-25T12:44:58.159Z,57.01
2019-04-25T12:45:58.298Z,56.52
2019-04-25T12:46:57.953Z,56.33
2019-04-25T12:47:59.313Z,57.29
2019-04-25T12:48:57.960Z,57.10
2019-04-25T12:49:57.968Z,57.65
2019-04-25T12:50:57.967Z,57.65
2019-04-25T12:51:58.739Z,57.94
2019-04-25T12:52:58.108Z,56.98
2019-04-25T12:53:58.038Z,55.89
2019-04-25T12:54:58.176Z,57.05
2019-04-25T12:55:57.988Z,57.07
2019-04-25T12:56:57.994Z,57.65
2019-04-25T12:57:58.177Z,56.30
2019-04-25T12:58:57.999Z,56.30
2019-04-25T12:59:58.002Z,57.37
2019-04-25T13:00:59.908Z,56.21
2019-04-25T13:01:58.010Z,54.66
2019-04-25T13:02:58.698Z,55.18
2019-04-25T13:03:58.840Z,56.33
2019-04-25T13:04:58.018Z,57.01